Impacts TAF Board
For situational awareness. Not to be used for flight planning purposes.
IDs:

KHBG - Hattiesburg/Chain Mu, MS, US

Issued at 0548 UTC 03 Jul 2022
Updated at 0553 UTC 03 Jul 2022
Potential Impact None Slight Moderate High
Time0538Z 03/06Z 03/07Z 03/08Z 03/09Z 03/10Z 03/11Z 03/12Z 03/13Z 03/14Z 03/15Z 03/16Z 03/17Z 03/18Z>>
Type OBS PRVL
  [TEMP]  
PRVL
  [TEMP]  
PRVL PRVL PRVL PRVL PRVL PRVL PRVL PRVL PRVL PRVL PRVL
VIS 0.25 >6
  [0.5]  
>6
  [0.5]  
>6 >6 >6 6 6 >6 >6 >6 >6 >6 >6
CIG 2 3
  [3]  
3
  [3]  
3 3 3 2 2 100 100 100 100 100 100
Cover OVX BKN
  [BKN]  
BKN
  [BKN]  
BKN BKN BKN BKN BKN BKN BKN BKN BKN BKN BKN
FltCat LIFR LIFR
  [LIFR]  
LIFR
  [LIFR]  
LIFR LIFR LIFR LIFR LIFR VFR VFR VFR VFR VFR VFR
WX FG --
  [FG]  
--
  [FG]  
-- -- -- BR BR -- -- -- -- -- VCSH
WDir VRB VRB
[VRB]
VRB
[VRB]
VRB VRB VRB VRB VRB 260 260 260 260 260 140
WSpd 0 0
  [0]  
0
  [0]  
0 0 0 0 0 4 4 4 4 4 4
WGst -- --
  [--]  
--
  [--]  
-- -- -- -- -- -- -- -- -- -- --
WSHgt -- --
[--]
--
[--]
-- -- -- -- -- -- -- -- -- -- --
WSDir -- --
[--]
--
[--]
-- -- -- -- -- -- -- -- -- -- --
WSSpd -- --
[--]
--
[--]
-- -- -- -- -- -- -- -- -- -- --
Raw TAF
KHBG 030548Z 0306/0406 00000KT P6SM BKN003
  TEMPO 0306/0308 1/2SM FG
  FM031100 00000KT 6SM BR BKN002
  FM031300 26004KT P6SM BKN100
  FM031800 14004KT P6SM VCSH BKN100
  PROB30 0322/0402 2SM +TSRA BKN040CB
  FM040200 16003KT P6SM BKN100


Raw METAR
KHBG 030538Z AUTO 00000KT 1/4SM FG VV002 24/24 A3004 RMK AO2 T02440244 $
KHBG 030528Z AUTO 00000KT 1 3/4SM BR OVC003 24/24 A3004 RMK AO2 VIS 1/2V5 T02440239 $
KHBG 030503Z AUTO 00000KT 9SM BKN003 24/24 A3004 RMK AO2 T02440239 $
KHBG 030453Z AUTO 00000KT 10SM SCT003 24/24 A3004 RMK AO2 SLP170 T02440239 $
KHBG 030353Z AUTO 00000KT 10SM FEW005 25/24 A3004 RMK AO2 RAB08E18 SLP168 P0000 T02500239 $
KHBG 030307Z AUTO 00000KT 10SM FEW003 25/24 A3003 RMK AO2 T02500244 $
KHBG 030253Z AUTO 15003KT 10SM BKN003 25/24 A3002 RMK AO2 SLP164 60000 T02500244 55005 $
KHBG 030241Z AUTO 14004KT 10SM BKN003 25/24 A3002 RMK AO2 CIG 002V006 T02500244 $

METAR Board
Radar Display
Forecast Discussion
For situational awareness. Not to be used for flight planning purposes.